Flight Track Log - Related Links

Times and Time Zones

All times are in EDT time to prevent confusion due to time zone crossing. See the UAL407 flight status page for this flight to view local times or setup timezone preferences in your user account.

Time Position Orientation Groundspeed Altitude Reporting Facility
EDT Latitude Longitude Course Direction KTS MPH feet Rate Location/Type
Tue 01:51:28 PM 26.0750 -80.1367 336° Northwest 79 91 800  Level Miami Center
Tue 01:52:30 PM 26.0742 -80.0789 91° East 207 238 2,400 1,636 Climbing Miami Center
Tue 01:52:45 PM 26.0808 -80.0536 74° East 222 255 2,900 2,400 Climbing Miami Center
Tue 01:53:00 PM 26.1070 -80.3605 307° West  Level FlightAware Approximate
Tue 01:53:45 PM 26.1397 -80.0436 North 250 288 5,400  Level Miami Center
Tue 01:54:00 PM 26.1549 -80.4558 293° West  Level FlightAware Approximate
Tue 01:54:38 PM 26.1892 -80.0728 332° Northwest 276 318 8,300  Level Miami Center
Tue 01:55:00 PM 26.1937 -80.5569 293° West  Level FlightAware Approximate
Tue 01:55:45 PM 26.2183 -80.1708 288° West 285 328 8,900  Level Miami Center
Tue 01:56:00 PM 26.2535 -80.6351 336° Northwest  Level FlightAware Approximate
Tue 01:56:40 PM 26.2292 -80.2406 280° West 290 334 9,600  Level Miami Center
Tue 01:57:45 PM 26.2503 -80.3197 287° West 328 377 10,600 1,776 Climbing Miami Center
Tue 01:58:45 PM 26.2722 -80.4572 280° West 376 433 13,300 2,400 Climbing Miami Center
Tue 01:59:45 PM 26.2925 -80.5597 282° West 381 438 15,400 2,100 Climbing Miami Center
Tue 02:00:45 PM 26.3564 -80.6753 302° West 381 438 17,500 1,700 Climbing Miami Center
Tue 02:01:45 PM 26.4228 -80.7747 307° West 405 466 18,800 1,600 Climbing Miami Center
Tue 02:02:45 PM 26.4908 -80.8769 307° West 418 481 20,700 1,900 Climbing Miami Center
Tue 02:03:45 PM 26.5631 -80.9861 307° West 418 481 22,600 1,600 Climbing Miami Center
Tue 02:04:45 PM 26.6311 -81.0908 306° West 423 487 23,900 700 Climbing Miami Center
Tue 02:05:45 PM 26.6794 -81.2133 294° West 429 494 24,000 50 Climbing Miami Center
Tue 02:06:45 PM 26.7194 -81.3428 289° West 434 499 24,000 550 Level Miami Center
Tue 02:07:45 PM 26.7575 -81.4606 290° West 441 507 25,100 1,400 Climbing Miami Center
Tue 02:08:45 PM 26.8028 -81.6086 289° West 453 521 26,800 1,450 Climbing Miami Center
Tue 02:09:45 PM 26.8422 -81.7431 288° West 453 521 28,000 1,850 Climbing Miami Center
Tue 02:10:45 PM 26.8797 -81.8725 288° West 453 521 30,500 2,500 Climbing Miami Center
Tue 02:11:45 PM 26.9175 -81.9858 291° West 428 493 33,000 1,700 Climbing Miami Center
Tue 02:12:45 PM 26.9531 -82.0969 290° West 404 465 33,900 450 Climbing Miami Center
Tue 02:13:45 PM 26.9828 -82.1986 288° West 391 450 33,900  Level Miami Center
Tue 02:14:45 PM 27.0239 -82.3239 290° West 379 436 33,900  Level Miami Center
Tue 02:15:45 PM 27.0594 -82.4350 290° West 384 442 33,900  Level Miami Center
Tue 02:16:45 PM 27.0925 -82.5486 288° West 390 449 33,900  Level Miami Center
Tue 02:17:45 PM 27.1219 -82.6503 288° West 385 443 33,900  Level Miami Center
Tue 02:18:45 PM 27.1569 -82.7617 289° West 385 443 33,900  Level Miami Center
Tue 02:19:45 PM 27.1919 -82.8756 289° West 385 443 33,900  Level Miami Center
Tue 02:20:45 PM 27.2247 -82.9892 288° West 385 443 33,900  Level Miami Center
Tue 02:21:45 PM 27.2594 -83.1031 289° West 390 449 33,900  Level Miami Center
Tue 02:22:45 PM 27.2942 -83.2169 289° West 390 449 33,900  Level Miami Center
Tue 02:23:45 PM 27.3269 -83.3286 288° West 390 449 33,900  Level Miami Center
Tue 02:24:45 PM 27.3614 -83.4428 289° West 390 449 33,900  Level Miami Center
Tue 02:25:45 PM 27.3936 -83.5567 288° West 390 449 33,900  Level Miami Center
Tue 02:26:45 PM 27.4297 -83.6733 289° West 390 449 33,900  Level Miami Center
Tue 02:27:45 PM 27.4642 -83.7853 289° West 390 449 33,900  Level Miami Center
Tue 02:28:46 PM 27.4961 -83.9017 287° West 390 449 33,900  Level Miami Center
Tue 02:29:45 PM 27.5300 -84.0161 288° West 390 449 33,900  Level Miami Center
Tue 02:30:45 PM 27.5597 -84.1325 286° West 390 449 33,900  Level Miami Center
Tue 02:31:45 PM 27.5994 -84.2497 291° West 390 449 33,900  Level Miami Center
Tue 02:32:45 PM 27.6289 -84.3664 286° West 390 449 33,900  Level Miami Center
Tue 02:33:45 PM 27.6625 -84.4833 288° West 395 455 33,900  Level Miami Center
Tue 02:34:45 PM 27.7019 -84.6006 291° West 395 455 33,900  Level Miami Center
Tue 02:35:40 PM 27.7303 -84.7186 285° West 391 450 33,900  Level Jacksonville Center
Tue 02:36:40 PM 27.7597 -84.8294 287° West 386 444 33,900  Level Jacksonville Center
Tue 02:37:40 PM 27.7956 -84.9403 290° West 395 455 33,900  Level Jacksonville Center
Tue 02:38:40 PM 27.8269 -85.0608 286° West 400 460 33,900  Level Jacksonville Center
Tue 02:39:40 PM 27.8625 -85.1836 288° West 400 460 33,900  Level Jacksonville Center
Tue 02:40:40 PM 27.8958 -85.2969 288° West 400 460 33,900  Level Jacksonville Center
Tue 02:41:40 PM 27.9311 -85.4153 289° West 400 460 33,900  Level Jacksonville Center
Tue 02:42:40 PM 27.9664 -85.5358 288° West 395 455 33,900  Level Jacksonville Center
Tue 02:43:40 PM 28.0014 -85.6519 289° West 402 463 33,900  Level Jacksonville Center
Tue 02:44:40 PM 28.0364 -85.7681 289° West 396 456 33,900  Level Jacksonville Center
Tue 02:45:40 PM 28.0733 -85.8844 290° West 396 456 33,900  Level Jacksonville Center
Tue 02:46:40 PM 28.1081 -86.0056 288° West 391 450 33,900  Level Jacksonville Center
Tue 02:47:40 PM 28.1428 -86.1194 289° West 391 450 33,900  Level Jacksonville Center
Tue 02:48:40 PM 28.1814 -86.2408 290° West 396 456 33,900  Level Jacksonville Center
Tue 02:49:40 PM 28.2136 -86.3619 287° West 401 461 33,900  Level Jacksonville Center
Tue 02:50:40 PM 28.2503 -86.4786 290° West 401 461 33,900  Level Jacksonville Center
Tue 02:51:40 PM 28.2825 -86.5928 288° West 400 460 33,900  Level Jacksonville Center
Tue 02:52:40 PM 28.3206 -86.7192 289° West 400 460 33,900  Level Jacksonville Center
Tue 02:53:40 PM 28.3544 -86.8361 288° West 400 460 33,900  Level Jacksonville Center
Tue 02:54:40 PM 28.3922 -86.9625 289° West 404 465 33,900  Level Jacksonville Center
Tue 02:55:40 PM 28.4242 -87.0747 288° West 410 472 33,900  Level Jacksonville Center
Tue 02:56:40 PM 28.4597 -87.1967 288° West 402 463 33,900  Level Jacksonville Center
Tue 02:57:40 PM 28.5031 -87.3308 290° West 419 482 33,900  Level Jacksonville Center
Tue 03:00:06 PM 28.5758 -87.6064 287° West 403 464 33,900  Level Houston Center
Tue 03:01:08 PM 28.6097 -87.7283 288° West 403 464 33,900  Level Houston Center
Tue 03:02:11 PM 28.6525 -87.8764 288° West 408 470 33,900  Level Houston Center
Tue 03:03:12 PM 28.6869 -87.9986 288° West 407 468 33,900  Level Houston Center
Tue 03:04:15 PM 28.7236 -88.1217 289° West 413 475 33,900  Level Houston Center
Tue 03:05:17 PM 28.7575 -88.2461 287° West 414 476 33,900  Level Houston Center
Tue 03:06:19 PM 28.7925 -88.3697 288° West 411 473 33,900  Level Houston Center
Tue 03:07:21 PM 28.8336 -88.5186 288° West 412 474 33,900  Level Houston Center
Tue 03:08:23 PM 28.8681 -88.6431 288° West 411 473 33,900  Level Houston Center
Tue 03:09:25 PM 28.8997 -88.7697 286° West 415 478 33,900  Level Houston Center
Tue 03:10:27 PM 28.9253 -88.8975 283° West 414 476 33,900  Level Houston Center
Tue 03:11:30 PM 28.9519 -89.0256 283° West 414 476 33,900 48 Level Houston Center
Tue 03:12:32 PM 28.9794 -89.1522 284° West 413 475 34,000  Climbing Houston Center
Tue 03:13:34 PM 29.0111 -89.3064 283° West 415 478 33,900 -48 Descending Houston Center
Tue 03:14:36 PM 29.0375 -89.4336 283° West 413 475 33,900  Level Houston Center
Tue 03:15:38 PM 29.0644 -89.5631 283° West 415 478 33,900  Level Houston Center
Tue 03:16:40 PM 29.0906 -89.6933 283° West 418 481 33,900  Level Houston Center
Tue 03:17:42 PM 29.1169 -89.8225 283° West 417 480 33,900  Level Houston Center
Tue 03:18:44 PM 29.1433 -89.9472 284° West 408 470 33,900  Level Houston Center
Tue 03:19:47 PM 29.1744 -90.1011 283° West 412 474 33,900  Level Houston Center
Tue 03:20:49 PM 29.1900 -90.2336 278° West 417 480 33,900  Level Houston Center
Tue 03:21:51 PM 29.2075 -90.3639 279° West 413 475 33,900  Level Houston Center
Tue 03:22:53 PM 29.2228 -90.4950 278° West 415 478 33,900  Level Houston Center
Tue 03:23:55 PM 29.2400 -90.6256 279° West 416 479 33,900  Level Houston Center
Tue 03:24:57 PM 29.2553 -90.7547 278° West 411 473 33,900  Level Houston Center
Tue 03:25:59 PM 29.2758 -90.9128 279° West 418 481 33,900  Level Houston Center
Tue 03:27:02 PM 29.2914 -91.0431 278° West 414 476 33,900  Level Houston Center
Tue 03:28:04 PM 29.3069 -91.1736 278° West 414 476 33,900  Level Houston Center
Tue 03:29:06 PM 29.3225 -91.3044 278° West 415 478 33,900  Level Houston Center
Tue 03:30:08 PM 29.3378 -91.4342 278° West 413 475 33,900  Level Houston Center
Tue 03:31:10 PM 29.3539 -91.5653 278° West 414 476 33,900  Level Houston Center
Tue 03:32:12 PM 29.3722 -91.7231 278° West 414 476 33,900  Level Houston Center
Tue 03:33:14 PM 29.3864 -91.8364 278° West 415 478 33,900  Level Houston Center
Tue 03:34:17 PM 29.4036 -91.9944 277° West 416 479 33,900  Level Houston Center
Tue 03:35:19 PM 29.4186 -92.1258 277° West 417 480 33,900  Level Houston Center
Tue 03:36:21 PM 29.4342 -92.2575 278° West 417 480 33,900  Level Houston Center
Tue 03:37:23 PM 29.4481 -92.3906 277° West 420 483 33,900  Level Houston Center
Tue 03:38:25 PM 29.4597 -92.5225 276° West 417 480 33,900  Level Houston Center
Tue 03:39:27 PM 29.4647 -92.6561 272° West 419 482 33,900  Level Houston Center
Tue 03:40:29 PM 29.4731 -92.8147 273° West 416 479 33,900  Level Houston Center
Tue 03:41:31 PM 29.4778 -92.9483 272° West 419 482 33,900  Level Houston Center
Tue 03:42:34 PM 29.4844 -93.0806 273° West 417 480 33,900 -48 Level Houston Center
Tue 03:43:36 PM 29.4894 -93.2144 272° West 418 481 33,800 -484 Descending Houston Center
Tue 03:44:38 PM 29.4958 -93.3469 273° West 416 479 32,900 -919 Descending Houston Center
Tue 03:45:40 PM 29.5011 -93.4817 273° West 419 482 31,900 -2,226 Descending Houston Center
Tue 03:46:42 PM 29.5072 -93.6431 273° West 421 484 28,300 -3,435 Descending Houston Center
Tue 03:47:44 PM 29.5119 -93.7803 272° West 426 490 24,800 -3,496 Descending Houston Center
Tue 03:48:37 PM 29.5172 -93.9075 273° West 432 497 21,600 -3,435 Descending Houston Center
Tue 03:49:48 PM 29.5219 -94.0542 272° West 427 491 17,700 -3,245 Descending Houston Center
Tue 03:50:15 PM 29.5247 -94.1253 273° West 423 487 16,300 -2,323 Descending Houston Center
Tue 03:50:50 PM 29.5281 -94.1844 274° West 421 484 15,300 -2,776 Descending Houston Center
Tue 03:51:22 PM 29.5292 -94.2714 271° West 395 455 13,200 -2,190 Descending Houston Center
Tue 03:51:53 PM 29.5319 -94.3086 275° West 401 461 13,000 -321 Descending Houston Center
Tue 03:52:18 PM 29.5456 -94.3750 283° West 348 400 12,900 -1,452 Descending Houston Center
Tue 03:52:55 PM 29.5717 -94.4333 297° West 363 418 11,500 -2,500 Descending Houston Center
Tue 03:53:18 PM 29.5894 -94.4775 295° West 353 406 10,400 -1,452 Descending Houston Center
Tue 03:53:57 PM 29.6144 -94.5350 297° West 355 409 10,000 -484 Descending Houston Center
Tue 03:54:20 PM 29.6333 -94.5825 295° West 358 412 9,900  Descending Houston Center
Tue 03:54:59 PM 29.6586 -94.6364 298° West 356 410 10,000  Climbing Houston Center
Tue 03:55:21 PM 29.6792 -94.6872 295° West 356 410 9,900 -97 Descending Houston Center
Tue 03:56:01 PM 29.7014 -94.7383 297° West 356 410 9,900  Level Houston Center
Tue 03:56:22 PM 29.7228 -94.7900 295° West 356 410 9,900  Level Houston Center
Tue 03:57:03 PM 29.7444 -94.8400 297° West 358 412 9,900 -577 Level Houston Center
Tue 03:58:06 PM 29.7883 -94.9431 296° West 303 349 8,900 -1,098 Descending Houston Center
Tue 03:58:25 PM 29.7992 -94.9731 293° West 291 335 8,400 -1,548 Descending Houston Center
Tue 03:59:08 PM 29.8228 -95.0258 297° West 290 334 7,300 -1,672 Descending Houston Center
Tue 03:59:26 PM 29.8367 -95.0600 295° West 289 333 6,700 -1,258 Descending Houston Center
Tue 04:00:10 PM 29.8572 -95.1081 296° West 289 333 6,000 -716 Descending Houston Center
Tue 04:00:33 PM 29.8747 -95.1517 295° West 287 330 5,900  Descending Houston Center
Tue 04:01:12 PM 29.8922 -95.1900 298° West 288 331 6,000 98 Climbing Houston Center
Tue 04:01:34 PM 29.8992 -95.2353 280° West 279 321 6,000  Level Houston Center
Tue 04:02:14 PM 29.8994 -95.2939 270° West 275 316 6,000  Level Houston Center
Tue 04:02:35 PM 29.8989 -95.3222 269° West 271 312 6,000  Level Houston Center
Tue 04:03:16 PM 29.9006 -95.3814 272° West 275 316 6,000  Level Houston Center
Tue 04:03:31 PM 29.9000 -95.4042 268° West 279 321 6,000 -387 Level Houston Center
Tue 04:04:18 PM 29.9008 -95.4703 271° West 279 321 5,600 -896 Descending Houston Center
Tue 04:04:38 PM 29.9008 -95.5053 270° West 278 320 5,000 -1,258 Descending Houston Center
Tue 04:05:20 PM 29.9033 -95.5528 273° West 263 303 4,300 -923 Descending Houston Center
Tue 04:06:22 PM 29.9625 -95.5747 342° North 243 280 3,400 -900 Descending Houston Center
Tue 04:06:40 PM 29.9836 -95.5628 26° Northeast 209 241 3,100 -484 Descending Houston Center
Tue 04:07:24 PM 29.9936 -95.5286 71° East 214 246 2,900 -273 Descending Houston Center

Login

Don't have an account? Register now (free) for customized features, flight alerts, and more!